Etusivu
METAR-TAF:

METAR-TAF

Lentoasemat :

Zagreb, Kroatia

Zagrebin lentoasema

Leveyspiiri: 45-44N, Pituuspiiri: 016-04E, korkeus merenpinnasta: 106 m

Tämänhetkinen sää

Tämä raportti tehtiin 38 minuuttia sitten, kello 14.00 UTC
Tuuli 3 kn eri suunnista
Lämpötila 33°C
Kosteus 34%
Ilmanpaine 1013 hPa
Näkyvyys 10 km tai enemmän
ei pilviä alle 1500 m:ssä eikä cumulonimbus-pilviä

METAR: LDZA 211400Z VRB03KT CAVOK 33/15 Q1013 NOSIG

Aika: 16:38 (14:38 UTC)

Sääennuste

Tämä raportti tehtiin 3 tuntia ja 13 minuuttia sitten, kello 11.25 UTC
Ennuste voimassa 21. päivästä klo 12 UTC - 22. päivään klo 12 UTC
Tuuli 5 kn koillisesta
Näkyvyys 10 km tai enemmän
ei pilviä alle 1500 m:ssä eikä cumulonimbus-pilviä
Todennäköisyys 40% :
Ajoittain
22. päivästä klo 00 UTC - 22. päivään klo 06 UTC
Muutamia pilviä 4000 ft:n korkeudessa, Kasvava cumulus-pilvi.
vesikuuroja

TAF: LDZA 211125Z 2112/2212 05005KT CAVOK TX34/2113Z TN22/2203Z PROB40 TEMPO 2200/2206 SHRA FEW040TCU

Säähavainnot ja -ennusteet yli 4000 lentoasemalta (METAR- ja TAF-raportit).

Käytössä olevat sääasemat on merkitty karttaan keltaisilla ja punaisilla pisteillä.

Aseta hiiri pisteen päälle nähdäksesi sääaseman nimen.

Klikkaa sitten nähdäksesi säähavainnot ja -ennusteet.

Kartan vaihtaminen: klikkaa mustalla rastilla varustettuja vihreitä pisteitä, niin voit zoomata sisään; viivalla varustettua vihreää pistettä, niin voit zoomata ulos tai vihreitä nuolia, niin pääset viereisille kartoille.


METAR-TAF: